sensor_id;sensor_type;location;lat;lon;timestamp;P1;durP1;ratioP1;P2;durP2;ratioP2
18917;SDS011;9591;52.742;13.650;2023-01-30T00:00:32;15.23;;;7.33;;
18917;SDS011;9591;52.742;13.650;2023-01-30T00:03:19;13.30;;;6.83;;
18917;SDS011;9591;52.742;13.650;2023-01-30T00:06:07;7.70;;;4.93;;
18917;SDS011;9591;52.742;13.650;2023-01-30T00:08:53;6.77;;;4.57;;
18917;SDS011;9591;52.742;13.650;2023-01-30T00:11:42;13.33;;;5.70;;
18917;SDS011;9591;52.742;13.650;2023-01-30T00:14:28;12.27;;;6.57;;
18917;SDS011;9591;52.742;13.650;2023-01-30T00:17:16;14.77;;;6.70;;
18917;SDS011;9591;52.742;13.650;2023-01-30T00:20:02;11.17;;;6.37;;
18917;SDS011;9591;52.742;13.650;2023-01-30T00:22:50;11.07;;;6.30;;
18917;SDS011;9591;52.742;13.650;2023-01-30T00:25:44;13.57;;;6.13;;
18917;SDS011;9591;52.742;13.650;2023-01-30T00:28:33;11.33;;;5.13;;
18917;SDS011;9591;52.742;13.650;2023-01-30T00:31:21;14.03;;;7.30;;
18917;SDS011;9591;52.742;13.650;2023-01-30T00:34:08;16.53;;;6.50;;
18917;SDS011;9591;52.742;13.650;2023-01-30T00:36:55;12.07;;;6.13;;
18917;SDS011;9591;52.742;13.650;2023-01-30T00:39:52;11.43;;;6.50;;
18917;SDS011;9591;52.742;13.650;2023-01-30T00:42:39;12.80;;;6.13;;
18917;SDS011;9591;52.742;13.650;2023-01-30T00:45:44;16.80;;;7.33;;
18917;SDS011;9591;52.742;13.650;2023-01-30T00:48:50;17.90;;;7.83;;
18917;SDS011;9591;52.742;13.650;2023-01-30T00:51:37;15.23;;;6.83;;
18917;SDS011;9591;52.742;13.650;2023-01-30T00:54:23;21.50;;;8.17;;
18917;SDS011;9591;52.742;13.650;2023-01-30T00:57:10;18.20;;;6.73;;
18917;SDS011;9591;52.742;13.650;2023-01-30T00:59:57;15.73;;;7.30;;
18917;SDS011;9591;52.742;13.650;2023-01-30T01:02:45;20.87;;;8.33;;
18917;SDS011;9591;52.742;13.650;2023-01-30T01:05:32;10.70;;;5.77;;
18917;SDS011;9591;52.742;13.650;2023-01-30T01:08:19;14.03;;;7.40;;
18917;SDS011;9591;52.742;13.650;2023-01-30T01:11:06;8.40;;;4.37;;
18917;SDS011;9591;52.742;13.650;2023-01-30T01:13:53;17.27;;;8.73;;
18917;SDS011;9591;52.742;13.650;2023-01-30T01:16:41;18.87;;;7.03;;
18917;SDS011;9591;52.742;13.650;2023-01-30T01:19:29;17.90;;;7.67;;
18917;SDS011;9591;52.742;13.650;2023-01-30T01:22:18;19.03;;;7.80;;
18917;SDS011;9591;52.742;13.650;2023-01-30T01:25:05;16.63;;;7.67;;
18917;SDS011;9591;52.742;13.650;2023-01-30T01:27:52;23.17;;;8.13;;
18917;SDS011;9591;52.742;13.650;2023-01-30T01:30:40;16.17;;;6.87;;
18917;SDS011;9591;52.742;13.650;2023-01-30T01:33:28;19.93;;;7.80;;
18917;SDS011;9591;52.742;13.650;2023-01-30T01:36:16;13.90;;;6.97;;
18917;SDS011;9591;52.742;13.650;2023-01-30T01:39:23;21.37;;;8.83;;
18917;SDS011;9591;52.742;13.650;2023-01-30T01:42:32;22.03;;;8.57;;
18917;SDS011;9591;52.742;13.650;2023-01-30T01:45:21;13.00;;;6.73;;
18917;SDS011;9591;52.742;13.650;2023-01-30T01:48:11;21.63;;;8.90;;
18917;SDS011;9591;52.742;13.650;2023-01-30T01:51:01;23.43;;;7.90;;
18917;SDS011;9591;52.742;13.650;2023-01-30T01:53:52;18.23;;;8.67;;
18917;SDS011;9591;52.742;13.650;2023-01-30T01:56:44;9.77;;;5.90;;
18917;SDS011;9591;52.742;13.650;2023-01-30T01:59:35;21.37;;;9.90;;
18917;SDS011;9591;52.742;13.650;2023-01-30T02:02:27;14.77;;;6.47;;
18917;SDS011;9591;52.742;13.650;2023-01-30T02:05:14;17.73;;;7.20;;
18917;SDS011;9591;52.742;13.650;2023-01-30T02:08:03;19.17;;;8.77;;
18917;SDS011;9591;52.742;13.650;2023-01-30T02:10:55;18.00;;;8.20;;
18917;SDS011;9591;52.742;13.650;2023-01-30T02:13:45;19.60;;;7.93;;
18917;SDS011;9591;52.742;13.650;2023-01-30T02:16:34;17.87;;;6.77;;
18917;SDS011;9591;52.742;13.650;2023-01-30T02:19:23;26.17;;;9.67;;
18917;SDS011;9591;52.742;13.650;2023-01-30T02:22:23;18.90;;;7.40;;
18917;SDS011;9591;52.742;13.650;2023-01-30T02:25:23;20.90;;;8.77;;
18917;SDS011;9591;52.742;13.650;2023-01-30T02:28:45;21.60;;;8.17;;
18917;SDS011;9591;52.742;13.650;2023-01-30T02:31:46;15.57;;;7.90;;
18917;SDS011;9591;52.742;13.650;2023-01-30T02:34:40;17.50;;;8.20;;
18917;SDS011;9591;52.742;13.650;2023-01-30T02:37:35;22.40;;;9.20;;
18917;SDS011;9591;52.742;13.650;2023-01-30T02:40:35;22.80;;;10.37;;
18917;SDS011;9591;52.742;13.650;2023-01-30T02:43:33;20.00;;;9.03;;
18917;SDS011;9591;52.742;13.650;2023-01-30T02:46:25;21.97;;;8.87;;
18917;SDS011;9591;52.742;13.650;2023-01-30T02:49:21;26.53;;;9.47;;
18917;SDS011;9591;52.742;13.650;2023-01-30T02:52:13;21.97;;;9.47;;
18917;SDS011;9591;52.742;13.650;2023-01-30T02:55:06;28.60;;;9.43;;
18917;SDS011;9591;52.742;13.650;2023-01-30T02:57:55;22.03;;;10.33;;
18917;SDS011;9591;52.742;13.650;2023-01-30T03:00:47;25.93;;;9.00;;
18917;SDS011;9591;52.742;13.650;2023-01-30T03:03:51;19.67;;;8.80;;
18917;SDS011;9591;52.742;13.650;2023-01-30T03:07:10;29.83;;;10.87;;
18917;SDS011;9591;52.742;13.650;2023-01-30T03:10:15;25.57;;;10.57;;
18917;SDS011;9591;52.742;13.650;2023-01-30T03:13:27;25.73;;;8.77;;
18917;SDS011;9591;52.742;13.650;2023-01-30T03:16:21;24.03;;;10.53;;
18917;SDS011;9591;52.742;13.650;2023-01-30T03:19:12;19.63;;;8.33;;
18917;SDS011;9591;52.742;13.650;2023-01-30T03:21:59;26.37;;;11.50;;
18917;SDS011;9591;52.742;13.650;2023-01-30T03:24:48;26.23;;;9.83;;
18917;SDS011;9591;52.742;13.650;2023-01-30T03:27:36;25.63;;;10.57;;
18917;SDS011;9591;52.742;13.650;2023-01-30T03:30:24;27.17;;;9.37;;
18917;SDS011;9591;52.742;13.650;2023-01-30T03:33:20;20.43;;;9.03;;
18917;SDS011;9591;52.742;13.650;2023-01-30T03:36:07;19.50;;;9.93;;
18917;SDS011;9591;52.742;13.650;2023-01-30T03:38:54;21.90;;;9.17;;
18917;SDS011;9591;52.742;13.650;2023-01-30T03:41:43;23.63;;;9.80;;
18917;SDS011;9591;52.742;13.650;2023-01-30T03:44:33;28.80;;;10.97;;
18917;SDS011;9591;52.742;13.650;2023-01-30T03:47:20;27.40;;;9.67;;
18917;SDS011;9591;52.742;13.650;2023-01-30T03:50:09;25.10;;;10.33;;
18917;SDS011;9591;52.742;13.650;2023-01-30T03:52:56;22.63;;;10.27;;
18917;SDS011;9591;52.742;13.650;2023-01-30T03:55:43;27.40;;;9.97;;
18917;SDS011;9591;52.742;13.650;2023-01-30T03:58:32;17.23;;;7.27;;
18917;SDS011;9591;52.742;13.650;2023-01-30T04:01:33;22.87;;;9.10;;
18917;SDS011;9591;52.742;13.650;2023-01-30T04:04:21;19.27;;;8.83;;
18917;SDS011;9591;52.742;13.650;2023-01-30T04:07:08;29.50;;;10.97;;
18917;SDS011;9591;52.742;13.650;2023-01-30T04:09:57;27.20;;;11.13;;
18917;SDS011;9591;52.742;13.650;2023-01-30T04:12:44;13.80;;;6.50;;
18917;SDS011;9591;52.742;13.650;2023-01-30T04:15:32;11.07;;;5.57;;
18917;SDS011;9591;52.742;13.650;2023-01-30T04:18:38;11.30;;;5.00;;
18917;SDS011;9591;52.742;13.650;2023-01-30T04:21:35;21.53;;;10.30;;
18917;SDS011;9591;52.742;13.650;2023-01-30T04:24:21;27.23;;;10.00;;
18917;SDS011;9591;52.742;13.650;2023-01-30T04:27:08;24.37;;;10.03;;
18917;SDS011;9591;52.742;13.650;2023-01-30T04:30:06;21.57;;;10.37;;
18917;SDS011;9591;52.742;13.650;2023-01-30T04:32:54;14.60;;;7.83;;
18917;SDS011;9591;52.742;13.650;2023-01-30T04:35:49;21.40;;;10.03;;
18917;SDS011;9591;52.742;13.650;2023-01-30T04:38:37;24.13;;;10.93;;
18917;SDS011;9591;52.742;13.650;2023-01-30T04:41:25;20.73;;;9.53;;
18917;SDS011;9591;52.742;13.650;2023-01-30T04:44:16;22.40;;;9.10;;
18917;SDS011;9591;52.742;13.650;2023-01-30T04:47:07;24.10;;;9.30;;
18917;SDS011;9591;52.742;13.650;2023-01-30T04:49:55;15.70;;;7.10;;
18917;SDS011;9591;52.742;13.650;2023-01-30T04:52:42;23.50;;;9.80;;
18917;SDS011;9591;52.742;13.650;2023-01-30T04:55:30;23.67;;;9.83;;
18917;SDS011;9591;52.742;13.650;2023-01-30T04:58:17;27.97;;;10.60;;
18917;SDS011;9591;52.742;13.650;2023-01-30T05:01:11;11.93;;;6.40;;
18917;SDS011;9591;52.742;13.650;2023-01-30T05:04:00;13.53;;;6.93;;
18917;SDS011;9591;52.742;13.650;2023-01-30T05:06:50;28.27;;;10.70;;
18917;SDS011;9591;52.742;13.650;2023-01-30T05:09:36;24.00;;;9.53;;
18917;SDS011;9591;52.742;13.650;2023-01-30T05:12:23;25.33;;;9.57;;
18917;SDS011;9591;52.742;13.650;2023-01-30T05:15:10;15.73;;;7.93;;
18917;SDS011;9591;52.742;13.650;2023-01-30T05:17:57;23.13;;;10.33;;
18917;SDS011;9591;52.742;13.650;2023-01-30T05:20:45;23.67;;;10.67;;
18917;SDS011;9591;52.742;13.650;2023-01-30T05:23:33;18.33;;;8.17;;
18917;SDS011;9591;52.742;13.650;2023-01-30T05:26:20;24.93;;;11.00;;
18917;SDS011;9591;52.742;13.650;2023-01-30T05:29:08;27.80;;;11.00;;
18917;SDS011;9591;52.742;13.650;2023-01-30T05:31:55;24.20;;;9.87;;
18917;SDS011;9591;52.742;13.650;2023-01-30T05:34:42;25.93;;;10.60;;
18917;SDS011;9591;52.742;13.650;2023-01-30T05:37:29;17.53;;;7.77;;
18917;SDS011;9591;52.742;13.650;2023-01-30T05:40:17;21.87;;;9.20;;
18917;SDS011;9591;52.742;13.650;2023-01-30T05:43:04;20.80;;;9.43;;
18917;SDS011;9591;52.742;13.650;2023-01-30T05:45:51;27.53;;;11.57;;
18917;SDS011;9591;52.742;13.650;2023-01-30T05:48:38;27.03;;;12.13;;
18917;SDS011;9591;52.742;13.650;2023-01-30T05:51:25;12.33;;;6.53;;
18917;SDS011;9591;52.742;13.650;2023-01-30T05:54:12;32.10;;;11.83;;
18917;SDS011;9591;52.742;13.650;2023-01-30T05:57:01;24.73;;;10.73;;
18917;SDS011;9591;52.742;13.650;2023-01-30T05:59:47;19.30;;;8.17;;
18917;SDS011;9591;52.742;13.650;2023-01-30T06:02:35;20.93;;;9.23;;
18917;SDS011;9591;52.742;13.650;2023-01-30T06:05:22;25.07;;;10.13;;
18917;SDS011;9591;52.742;13.650;2023-01-30T06:08:09;25.33;;;9.00;;
18917;SDS011;9591;52.742;13.650;2023-01-30T06:10:58;23.37;;;10.67;;
18917;SDS011;9591;52.742;13.650;2023-01-30T06:13:47;30.23;;;11.03;;
18917;SDS011;9591;52.742;13.650;2023-01-30T06:16:34;22.07;;;10.00;;
18917;SDS011;9591;52.742;13.650;2023-01-30T06:19:20;24.83;;;9.03;;
18917;SDS011;9591;52.742;13.650;2023-01-30T06:22:07;25.60;;;10.93;;
18917;SDS011;9591;52.742;13.650;2023-01-30T06:24:54;25.80;;;10.00;;
18917;SDS011;9591;52.742;13.650;2023-01-30T06:27:41;24.17;;;10.23;;
18917;SDS011;9591;52.742;13.650;2023-01-30T06:30:30;19.00;;;8.13;;
18917;SDS011;9591;52.742;13.650;2023-01-30T06:33:16;23.97;;;9.67;;
18917;SDS011;9591;52.742;13.650;2023-01-30T06:36:03;20.10;;;9.07;;
18917;SDS011;9591;52.742;13.650;2023-01-30T06:38:50;25.03;;;10.17;;
18917;SDS011;9591;52.742;13.650;2023-01-30T06:41:37;24.73;;;10.27;;
18917;SDS011;9591;52.742;13.650;2023-01-30T06:44:24;24.93;;;10.20;;
18917;SDS011;9591;52.742;13.650;2023-01-30T06:47:12;27.37;;;10.53;;
18917;SDS011;9591;52.742;13.650;2023-01-30T06:49:59;25.77;;;10.73;;
18917;SDS011;9591;52.742;13.650;2023-01-30T06:52:46;25.60;;;10.53;;
18917;SDS011;9591;52.742;13.650;2023-01-30T06:55:35;24.37;;;9.37;;
18917;SDS011;9591;52.742;13.650;2023-01-30T06:58:23;17.83;;;8.70;;
18917;SDS011;9591;52.742;13.650;2023-01-30T07:01:10;27.07;;;10.50;;
18917;SDS011;9591;52.742;13.650;2023-01-30T07:04:00;27.90;;;10.63;;
18917;SDS011;9591;52.742;13.650;2023-01-30T07:06:47;22.23;;;9.83;;
18917;SDS011;9591;52.742;13.650;2023-01-30T07:09:34;22.67;;;9.80;;
18917;SDS011;9591;52.742;13.650;2023-01-30T07:12:21;23.60;;;10.20;;
18917;SDS011;9591;52.742;13.650;2023-01-30T07:15:09;28.37;;;11.67;;
18917;SDS011;9591;52.742;13.650;2023-01-30T07:17:55;17.10;;;7.83;;
18917;SDS011;9591;52.742;13.650;2023-01-30T07:20:46;24.43;;;10.57;;
18917;SDS011;9591;52.742;13.650;2023-01-30T07:23:33;19.57;;;9.87;;
18917;SDS011;9591;52.742;13.650;2023-01-30T07:26:20;17.07;;;9.00;;
18917;SDS011;9591;52.742;13.650;2023-01-30T07:29:07;19.93;;;9.20;;
18917;SDS011;9591;52.742;13.650;2023-01-30T07:31:54;19.67;;;8.63;;
18917;SDS011;9591;52.742;13.650;2023-01-30T07:34:41;18.20;;;8.40;;
18917;SDS011;9591;52.742;13.650;2023-01-30T07:37:29;20.60;;;8.40;;
18917;SDS011;9591;52.742;13.650;2023-01-30T07:40:17;14.10;;;7.80;;
18917;SDS011;9591;52.742;13.650;2023-01-30T07:43:06;14.23;;;7.30;;
18917;SDS011;9591;52.742;13.650;2023-01-30T07:45:53;16.53;;;7.77;;
18917;SDS011;9591;52.742;13.650;2023-01-30T07:48:42;9.47;;;5.57;;
18917;SDS011;9591;52.742;13.650;2023-01-30T07:51:29;9.53;;;5.40;;
18917;SDS011;9591;52.742;13.650;2023-01-30T07:54:19;9.30;;;5.50;;
18917;SDS011;9591;52.742;13.650;2023-01-30T07:57:05;10.40;;;5.63;;
18917;SDS011;9591;52.742;13.650;2023-01-30T07:59:52;11.23;;;5.43;;
18917;SDS011;9591;52.742;13.650;2023-01-30T08:02:39;8.47;;;4.90;;
18917;SDS011;9591;52.742;13.650;2023-01-30T08:05:26;11.03;;;5.50;;
18917;SDS011;9591;52.742;13.650;2023-01-30T08:08:13;7.63;;;4.77;;
18917;SDS011;9591;52.742;13.650;2023-01-30T08:11:01;8.03;;;4.97;;
18917;SDS011;9591;52.742;13.650;2023-01-30T08:13:48;8.80;;;4.83;;
18917;SDS011;9591;52.742;13.650;2023-01-30T08:16:34;11.50;;;4.67;;
18917;SDS011;9591;52.742;13.650;2023-01-30T08:19:23;8.23;;;4.20;;
18917;SDS011;9591;52.742;13.650;2023-01-30T08:22:10;8.53;;;4.20;;
18917;SDS011;9591;52.742;13.650;2023-01-30T08:24:56;7.47;;;4.27;;
18917;SDS011;9591;52.742;13.650;2023-01-30T08:27:44;6.87;;;3.50;;
18917;SDS011;9591;52.742;13.650;2023-01-30T08:30:31;6.43;;;4.13;;
18917;SDS011;9591;52.742;13.650;2023-01-30T08:33:18;7.53;;;4.30;;
18917;SDS011;9591;52.742;13.650;2023-01-30T08:36:05;7.00;;;4.40;;
18917;SDS011;9591;52.742;13.650;2023-01-30T08:38:52;6.23;;;4.07;;
18917;SDS011;9591;52.742;13.650;2023-01-30T08:41:39;5.63;;;4.00;;
18917;SDS011;9591;52.742;13.650;2023-01-30T08:44:28;7.30;;;4.50;;
18917;SDS011;9591;52.742;13.650;2023-01-30T08:47:15;8.23;;;3.00;;
18917;SDS011;9591;52.742;13.650;2023-01-30T08:50:02;5.67;;;3.33;;
18917;SDS011;9591;52.742;13.650;2023-01-30T08:52:50;6.10;;;3.83;;
18917;SDS011;9591;52.742;13.650;2023-01-30T08:55:36;6.63;;;4.17;;
18917;SDS011;9591;52.742;13.650;2023-01-30T08:58:24;7.87;;;4.10;;
18917;SDS011;9591;52.742;13.650;2023-01-30T09:01:13;6.37;;;3.60;;
18917;SDS011;9591;52.742;13.650;2023-01-30T09:03:59;7.60;;;3.87;;
18917;SDS011;9591;52.742;13.650;2023-01-30T09:06:46;6.53;;;3.57;;
18917;SDS011;9591;52.742;13.650;2023-01-30T09:09:33;7.40;;;4.00;;
18917;SDS011;9591;52.742;13.650;2023-01-30T09:12:20;6.47;;;3.97;;
18917;SDS011;9591;52.742;13.650;2023-01-30T09:15:07;8.53;;;3.73;;
18917;SDS011;9591;52.742;13.650;2023-01-30T09:17:57;5.43;;;3.83;;
18917;SDS011;9591;52.742;13.650;2023-01-30T09:20:43;7.70;;;4.13;;
18917;SDS011;9591;52.742;13.650;2023-01-30T09:23:30;6.23;;;4.33;;
18917;SDS011;9591;52.742;13.650;2023-01-30T09:26:17;8.17;;;4.00;;
18917;SDS011;9591;52.742;13.650;2023-01-30T09:29:04;8.63;;;4.10;;
18917;SDS011;9591;52.742;13.650;2023-01-30T09:31:50;5.97;;;3.50;;
18917;SDS011;9591;52.742;13.650;2023-01-30T09:34:39;8.70;;;3.53;;
18917;SDS011;9591;52.742;13.650;2023-01-30T09:37:26;5.63;;;3.17;;
18917;SDS011;9591;52.742;13.650;2023-01-30T09:40:13;10.10;;;4.07;;
18917;SDS011;9591;52.742;13.650;2023-01-30T09:43:11;8.13;;;3.23;;
18917;SDS011;9591;52.742;13.650;2023-01-30T09:46:14;6.73;;;3.43;;
18917;SDS011;9591;52.742;13.650;2023-01-30T09:49:13;6.47;;;2.63;;
18917;SDS011;9591;52.742;13.650;2023-01-30T09:52:13;5.23;;;2.90;;
18917;SDS011;9591;52.742;13.650;2023-01-30T09:55:14;4.63;;;2.90;;
18917;SDS011;9591;52.742;13.650;2023-01-30T09:58:03;7.13;;;2.50;;
18917;SDS011;9591;52.742;13.650;2023-01-30T10:00:51;13.27;;;2.57;;
18917;SDS011;9591;52.742;13.650;2023-01-30T10:03:45;2.70;;;2.47;;
18917;SDS011;9591;52.742;13.650;2023-01-30T10:06:43;6.93;;;2.30;;
18917;SDS011;9591;52.742;13.650;2023-01-30T10:09:44;4.37;;;2.40;;
18917;SDS011;9591;52.742;13.650;2023-01-30T10:12:38;5.30;;;2.50;;
18917;SDS011;9591;52.742;13.650;2023-01-30T10:15:39;4.67;;;2.70;;
18917;SDS011;9591;52.742;13.650;2023-01-30T10:18:38;7.57;;;2.20;;
18917;SDS011;9591;52.742;13.650;2023-01-30T10:21:43;4.80;;;1.53;;
18917;SDS011;9591;52.742;13.650;2023-01-30T10:24:36;4.53;;;1.80;;
18917;SDS011;9591;52.742;13.650;2023-01-30T10:27:35;4.60;;;2.13;;
18917;SDS011;9591;52.742;13.650;2023-01-30T10:30:23;7.40;;;1.77;;
18917;SDS011;9591;52.742;13.650;2023-01-30T10:33:14;3.07;;;1.87;;
18917;SDS011;9591;52.742;13.650;2023-01-30T10:36:06;3.43;;;1.50;;
18917;SDS011;9591;52.742;13.650;2023-01-30T10:38:57;8.63;;;1.97;;
18917;SDS011;9591;52.742;13.650;2023-01-30T10:41:53;3.77;;;1.97;;
18917;SDS011;9591;52.742;13.650;2023-01-30T10:44:45;7.90;;;2.27;;
18917;SDS011;9591;52.742;13.650;2023-01-30T10:47:37;6.50;;;1.83;;
18917;SDS011;9591;52.742;13.650;2023-01-30T10:50:33;5.37;;;2.00;;
18917;SDS011;9591;52.742;13.650;2023-01-30T10:53:31;11.83;;;1.90;;
18917;SDS011;9591;52.742;13.650;2023-01-30T10:56:29;8.50;;;2.20;;
18917;SDS011;9591;52.742;13.650;2023-01-30T10:59:24;5.67;;;2.03;;
18917;SDS011;9591;52.742;13.650;2023-01-30T11:02:22;12.73;;;2.10;;
18917;SDS011;9591;52.742;13.650;2023-01-30T11:05:12;9.10;;;2.43;;
18917;SDS011;9591;52.742;13.650;2023-01-30T11:08:00;13.00;;;2.03;;
18917;SDS011;9591;52.742;13.650;2023-01-30T11:10:47;6.77;;;2.03;;
18917;SDS011;9591;52.742;13.650;2023-01-30T11:13:35;10.43;;;2.33;;
18917;SDS011;9591;52.742;13.650;2023-01-30T11:16:23;10.13;;;2.47;;
18917;SDS011;9591;52.742;13.650;2023-01-30T11:19:10;10.87;;;2.83;;
18917;SDS011;9591;52.742;13.650;2023-01-30T11:22:09;12.40;;;2.70;;
18917;SDS011;9591;52.742;13.650;2023-01-30T11:25:00;4.20;;;2.00;;
18917;SDS011;9591;52.742;13.650;2023-01-30T11:27:51;14.33;;;3.20;;
18917;SDS011;9591;52.742;13.650;2023-01-30T11:30:40;11.67;;;2.33;;
18917;SDS011;9591;52.742;13.650;2023-01-30T11:33:32;10.83;;;1.97;;
18917;SDS011;9591;52.742;13.650;2023-01-30T11:36:23;7.90;;;2.20;;
18917;SDS011;9591;52.742;13.650;2023-01-30T11:39:20;12.33;;;2.57;;
18917;SDS011;9591;52.742;13.650;2023-01-30T11:42:09;15.30;;;2.70;;
18917;SDS011;9591;52.742;13.650;2023-01-30T11:44:57;12.97;;;2.30;;
18917;SDS011;9591;52.742;13.650;2023-01-30T11:48:03;7.30;;;2.30;;
18917;SDS011;9591;52.742;13.650;2023-01-30T11:51:18;10.33;;;2.20;;
18917;SDS011;9591;52.742;13.650;2023-01-30T11:54:06;8.93;;;2.17;;
18917;SDS011;9591;52.742;13.650;2023-01-30T11:57:01;16.50;;;2.63;;
18917;SDS011;9591;52.742;13.650;2023-01-30T11:59:52;11.43;;;2.10;;
18917;SDS011;9591;52.742;13.650;2023-01-30T12:02:42;16.97;;;2.83;;
18917;SDS011;9591;52.742;13.650;2023-01-30T12:05:32;10.43;;;1.90;;
18917;SDS011;9591;52.742;13.650;2023-01-30T12:08:31;6.60;;;2.20;;
18917;SDS011;9591;52.742;13.650;2023-01-30T12:11:31;11.50;;;2.17;;
18917;SDS011;9591;52.742;13.650;2023-01-30T12:14:34;14.17;;;2.00;;
18917;SDS011;9591;52.742;13.650;2023-01-30T12:17:26;8.87;;;3.10;;
18917;SDS011;9591;52.742;13.650;2023-01-30T12:20:22;8.50;;;2.30;;
18917;SDS011;9591;52.742;13.650;2023-01-30T12:23:16;16.93;;;2.60;;
18917;SDS011;9591;52.742;13.650;2023-01-30T12:26:12;18.63;;;2.83;;
18917;SDS011;9591;52.742;13.650;2023-01-30T12:29:06;25.40;;;3.70;;
18917;SDS011;9591;52.742;13.650;2023-01-30T12:32:04;10.73;;;2.43;;
18917;SDS011;9591;52.742;13.650;2023-01-30T12:34:53;13.97;;;2.47;;
18917;SDS011;9591;52.742;13.650;2023-01-30T12:37:44;17.43;;;2.87;;
18917;SDS011;9591;52.742;13.650;2023-01-30T12:40:42;14.03;;;2.70;;
18917;SDS011;9591;52.742;13.650;2023-01-30T12:43:41;11.97;;;2.63;;
18917;SDS011;9591;52.742;13.650;2023-01-30T12:46:43;8.73;;;2.50;;
18917;SDS011;9591;52.742;13.650;2023-01-30T12:49:47;15.33;;;2.27;;
18917;SDS011;9591;52.742;13.650;2023-01-30T12:52:50;17.43;;;2.70;;
18917;SDS011;9591;52.742;13.650;2023-01-30T12:55:52;20.20;;;2.87;;
18917;SDS011;9591;52.742;13.650;2023-01-30T12:58:52;9.97;;;2.27;;
18917;SDS011;9591;52.742;13.650;2023-01-30T13:01:46;12.77;;;2.43;;
18917;SDS011;9591;52.742;13.650;2023-01-30T13:04:46;6.60;;;2.70;;
18917;SDS011;9591;52.742;13.650;2023-01-30T13:07:53;19.37;;;2.47;;
18917;SDS011;9591;52.742;13.650;2023-01-30T13:10:56;15.57;;;2.70;;
18917;SDS011;9591;52.742;13.650;2023-01-30T13:13:51;15.10;;;2.83;;
18917;SDS011;9591;52.742;13.650;2023-01-30T13:16:47;8.47;;;2.63;;
18917;SDS011;9591;52.742;13.650;2023-01-30T13:19:51;11.20;;;2.67;;
18917;SDS011;9591;52.742;13.650;2023-01-30T13:22:45;9.23;;;2.47;;
18917;SDS011;9591;52.742;13.650;2023-01-30T13:25:41;14.73;;;3.10;;
18917;SDS011;9591;52.742;13.650;2023-01-30T13:28:32;11.93;;;2.33;;
18917;SDS011;9591;52.742;13.650;2023-01-30T13:31:26;5.20;;;2.10;;
18917;SDS011;9591;52.742;13.650;2023-01-30T13:34:19;11.63;;;2.40;;
18917;SDS011;9591;52.742;13.650;2023-01-30T13:37:11;6.80;;;2.30;;
18917;SDS011;9591;52.742;13.650;2023-01-30T13:40:02;6.07;;;1.90;;
18917;SDS011;9591;52.742;13.650;2023-01-30T13:42:51;10.87;;;2.13;;
18917;SDS011;9591;52.742;13.650;2023-01-30T13:45:43;12.23;;;2.73;;
18917;SDS011;9591;52.742;13.650;2023-01-30T13:48:36;11.07;;;2.27;;
18917;SDS011;9591;52.742;13.650;2023-01-30T13:51:33;14.23;;;2.10;;
18917;SDS011;9591;52.742;13.650;2023-01-30T13:54:39;8.17;;;2.50;;
18917;SDS011;9591;52.742;13.650;2023-01-30T13:57:40;5.87;;;2.03;;
18917;SDS011;9591;52.742;13.650;2023-01-30T14:00:33;10.60;;;2.73;;
18917;SDS011;9591;52.742;13.650;2023-01-30T14:03:22;12.73;;;3.07;;
18917;SDS011;9591;52.742;13.650;2023-01-30T14:06:13;9.17;;;2.13;;
18917;SDS011;9591;52.742;13.650;2023-01-30T14:09:17;18.00;;;2.17;;
18917;SDS011;9591;52.742;13.650;2023-01-30T14:12:13;8.43;;;2.23;;
18917;SDS011;9591;52.742;13.650;2023-01-30T14:15:05;4.03;;;1.33;;
18917;SDS011;9591;52.742;13.650;2023-01-30T14:18:20;7.80;;;2.03;;
18917;SDS011;9591;52.742;13.650;2023-01-30T14:21:22;6.00;;;1.43;;
18917;SDS011;9591;52.742;13.650;2023-01-30T14:24:16;4.03;;;1.30;;
18917;SDS011;9591;52.742;13.650;2023-01-30T14:27:22;3.10;;;1.10;;
18917;SDS011;9591;52.742;13.650;2023-01-30T14:33:33;7.67;;;1.83;;
18917;SDS011;9591;52.742;13.650;2023-01-30T14:36:35;2.33;;;1.43;;
18917;SDS011;9591;52.742;13.650;2023-01-30T14:39:38;7.77;;;1.70;;
18917;SDS011;9591;52.742;13.650;2023-01-30T14:42:26;4.47;;;1.60;;
18917;SDS011;9591;52.742;13.650;2023-01-30T14:45:15;7.63;;;2.03;;
18917;SDS011;9591;52.742;13.650;2023-01-30T14:48:28;5.97;;;1.20;;
18917;SDS011;9591;52.742;13.650;2023-01-30T14:51:20;3.83;;;1.73;;
18917;SDS011;9591;52.742;13.650;2023-01-30T14:54:19;7.33;;;1.57;;
18917;SDS011;9591;52.742;13.650;2023-01-30T14:57:26;1.30;;;0.87;;
18917;SDS011;9591;52.742;13.650;2023-01-30T15:00:19;6.50;;;1.20;;
18917;SDS011;9591;52.742;13.650;2023-01-30T15:03:15;4.03;;;1.63;;
18917;SDS011;9591;52.742;13.650;2023-01-30T15:06:05;3.20;;;1.17;;
18917;SDS011;9591;52.742;13.650;2023-01-30T15:08:52;5.23;;;1.40;;
18917;SDS011;9591;52.742;13.650;2023-01-30T15:11:41;7.30;;;1.83;;
18917;SDS011;9591;52.742;13.650;2023-01-30T15:14:35;7.40;;;1.40;;
18917;SDS011;9591;52.742;13.650;2023-01-30T15:17:35;3.97;;;1.10;;
18917;SDS011;9591;52.742;13.650;2023-01-30T15:20:42;2.70;;;1.30;;
18917;SDS011;9591;52.742;13.650;2023-01-30T15:23:59;6.67;;;1.30;;
18917;SDS011;9591;52.742;13.650;2023-01-30T15:26:57;4.43;;;1.90;;
18917;SDS011;9591;52.742;13.650;2023-01-30T15:30:01;2.00;;;1.43;;
18917;SDS011;9591;52.742;13.650;2023-01-30T15:33:06;4.63;;;1.20;;
18917;SDS011;9591;52.742;13.650;2023-01-30T15:35:54;2.17;;;1.50;;
18917;SDS011;9591;52.742;13.650;2023-01-30T15:38:41;5.77;;;1.43;;
18917;SDS011;9591;52.742;13.650;2023-01-30T15:41:28;5.00;;;1.93;;
18917;SDS011;9591;52.742;13.650;2023-01-30T15:44:34;6.77;;;1.60;;
18917;SDS011;9591;52.742;13.650;2023-01-30T15:47:34;4.60;;;2.27;;
18917;SDS011;9591;52.742;13.650;2023-01-30T15:50:35;5.30;;;1.60;;
18917;SDS011;9591;52.742;13.650;2023-01-30T15:53:24;4.03;;;1.67;;
18917;SDS011;9591;52.742;13.650;2023-01-30T15:56:15;3.23;;;1.60;;
18917;SDS011;9591;52.742;13.650;2023-01-30T15:59:04;2.03;;;1.27;;
18917;SDS011;9591;52.742;13.650;2023-01-30T16:01:58;6.63;;;1.63;;
18917;SDS011;9591;52.742;13.650;2023-01-30T16:04:47;5.07;;;1.33;;
18917;SDS011;9591;52.742;13.650;2023-01-30T16:07:34;3.73;;;1.80;;
18917;SDS011;9591;52.742;13.650;2023-01-30T16:10:21;3.93;;;2.27;;
18917;SDS011;9591;52.742;13.650;2023-01-30T16:13:10;3.50;;;1.30;;
18917;SDS011;9591;52.742;13.650;2023-01-30T16:15:57;5.17;;;1.27;;
18917;SDS011;9591;52.742;13.650;2023-01-30T16:18:50;4.47;;;1.33;;
18917;SDS011;9591;52.742;13.650;2023-01-30T16:21:41;4.37;;;1.70;;
18917;SDS011;9591;52.742;13.650;2023-01-30T16:24:33;4.30;;;1.50;;
18917;SDS011;9591;52.742;13.650;2023-01-30T16:27:25;5.67;;;1.70;;
18917;SDS011;9591;52.742;13.650;2023-01-30T16:30:23;1.33;;;1.20;;
18917;SDS011;9591;52.742;13.650;2023-01-30T16:33:13;4.00;;;1.70;;
18917;SDS011;9591;52.742;13.650;2023-01-30T16:36:05;4.73;;;1.80;;
18917;SDS011;9591;52.742;13.650;2023-01-30T16:39:25;1.83;;;1.67;;
18917;SDS011;9591;52.742;13.650;2023-01-30T16:42:18;4.83;;;1.70;;
18917;SDS011;9591;52.742;13.650;2023-01-30T16:45:20;3.43;;;1.17;;
18917;SDS011;9591;52.742;13.650;2023-01-30T16:48:39;5.27;;;1.43;;
18917;SDS011;9591;52.742;13.650;2023-01-30T16:51:31;4.87;;;1.53;;
18917;SDS011;9591;52.742;13.650;2023-01-30T16:54:20;7.13;;;1.70;;
18917;SDS011;9591;52.742;13.650;2023-01-30T16:57:23;5.37;;;1.83;;
18917;SDS011;9591;52.742;13.650;2023-01-30T17:00:18;2.77;;;1.23;;
18917;SDS011;9591;52.742;13.650;2023-01-30T17:03:17;3.80;;;1.40;;
18917;SDS011;9591;52.742;13.650;2023-01-30T17:06:08;10.83;;;2.87;;
18917;SDS011;9591;52.742;13.650;2023-01-30T17:09:09;5.57;;;1.83;;